sensor_id;sensor_type;location;lat;lon;timestamp;temperature;humidity
13446;DHT22;6795;51.232;3.764;2023-12-04T00:00:14;2.90;99.90
13446;DHT22;6795;51.232;3.764;2023-12-04T00:02:44;2.90;99.90
13446;DHT22;6795;51.232;3.764;2023-12-04T00:05:12;3.00;99.90
13446;DHT22;6795;51.232;3.764;2023-12-04T00:07:41;3.00;99.90
13446;DHT22;6795;51.232;3.764;2023-12-04T00:10:09;3.00;99.90
13446;DHT22;6795;51.232;3.764;2023-12-04T00:12:37;3.00;99.90
13446;DHT22;6795;51.232;3.764;2023-12-04T00:15:07;3.00;99.90
13446;DHT22;6795;51.232;3.764;2023-12-04T00:17:36;3.00;99.90
13446;DHT22;6795;51.232;3.764;2023-12-04T00:20:09;3.00;99.90
13446;DHT22;6795;51.232;3.764;2023-12-04T00:22:38;3.00;99.90
13446;DHT22;6795;51.232;3.764;2023-12-04T00:25:07;3.00;99.90
13446;DHT22;6795;51.232;3.764;2023-12-04T00:27:35;3.00;99.90
13446;DHT22;6795;51.232;3.764;2023-12-04T00:30:04;3.00;99.90
13446;DHT22;6795;51.232;3.764;2023-12-04T00:32:33;3.00;99.90
13446;DHT22;6795;51.232;3.764;2023-12-04T00:35:02;2.90;99.90
13446;DHT22;6795;51.232;3.764;2023-12-04T00:37:32;2.90;99.90
13446;DHT22;6795;51.232;3.764;2023-12-04T00:40:06;2.90;99.90
13446;DHT22;6795;51.232;3.764;2023-12-04T00:42:35;2.80;99.90
13446;DHT22;6795;51.232;3.764;2023-12-04T00:45:04;2.80;99.90
13446;DHT22;6795;51.232;3.764;2023-12-04T00:47:32;2.80;99.90
13446;DHT22;6795;51.232;3.764;2023-12-04T00:50:01;2.70;99.90
13446;DHT22;6795;51.232;3.764;2023-12-04T00:52:29;2.60;99.90
13446;DHT22;6795;51.232;3.764;2023-12-04T00:54:59;2.60;99.90
13446;DHT22;6795;51.232;3.764;2023-12-04T00:57:27;2.50;99.90
13446;DHT22;6795;51.232;3.764;2023-12-04T00:59:56;2.50;99.90
13446;DHT22;6795;51.232;3.764;2023-12-04T01:02:25;2.50;99.90
13446;DHT22;6795;51.232;3.764;2023-12-04T01:04:53;2.50;99.90
13446;DHT22;6795;51.232;3.764;2023-12-04T01:07:21;2.50;99.90
13446;DHT22;6795;51.232;3.764;2023-12-04T01:09:49;2.50;99.90
13446;DHT22;6795;51.232;3.764;2023-12-04T01:12:20;2.50;99.90
13446;DHT22;6795;51.232;3.764;2023-12-04T01:14:49;2.50;99.90
13446;DHT22;6795;51.232;3.764;2023-12-04T01:17:17;2.50;99.90
13446;DHT22;6795;51.232;3.764;2023-12-04T01:19:46;2.60;99.90
13446;DHT22;6795;51.232;3.764;2023-12-04T01:22:14;2.60;99.90
13446;DHT22;6795;51.232;3.764;2023-12-04T01:24:42;2.70;99.90
13446;DHT22;6795;51.232;3.764;2023-12-04T01:27:11;2.70;99.90
13446;DHT22;6795;51.232;3.764;2023-12-04T01:29:41;2.70;99.90
13446;DHT22;6795;51.232;3.764;2023-12-04T01:32:09;2.80;99.90
13446;DHT22;6795;51.232;3.764;2023-12-04T01:34:37;2.90;99.90
13446;DHT22;6795;51.232;3.764;2023-12-04T01:37:06;3.00;99.90
13446;DHT22;6795;51.232;3.764;2023-12-04T01:39:34;3.10;99.90
13446;DHT22;6795;51.232;3.764;2023-12-04T01:42:04;3.10;99.90
13446;DHT22;6795;51.232;3.764;2023-12-04T01:44:32;3.10;99.90
13446;DHT22;6795;51.232;3.764;2023-12-04T01:47:02;3.20;99.90
13446;DHT22;6795;51.232;3.764;2023-12-04T01:49:31;3.20;99.90
13446;DHT22;6795;51.232;3.764;2023-12-04T01:52:02;3.10;99.90
13446;DHT22;6795;51.232;3.764;2023-12-04T01:54:31;3.10;99.90
13446;DHT22;6795;51.232;3.764;2023-12-04T01:57:01;3.10;99.90
13446;DHT22;6795;51.232;3.764;2023-12-04T01:59:30;3.20;99.90
13446;DHT22;6795;51.232;3.764;2023-12-04T02:01:58;3.20;99.90
13446;DHT22;6795;51.232;3.764;2023-12-04T02:04:28;3.30;99.90
13446;DHT22;6795;51.232;3.764;2023-12-04T02:07:00;3.30;99.90
13446;DHT22;6795;51.232;3.764;2023-12-04T02:09:28;3.30;99.90
13446;DHT22;6795;51.232;3.764;2023-12-04T02:11:58;3.30;99.90
13446;DHT22;6795;51.232;3.764;2023-12-04T02:14:27;3.30;99.90
13446;DHT22;6795;51.232;3.764;2023-12-04T02:16:56;3.30;99.90
13446;DHT22;6795;51.232;3.764;2023-12-04T02:19:27;3.30;99.90
13446;DHT22;6795;51.232;3.764;2023-12-04T02:21:56;3.30;99.90
13446;DHT22;6795;51.232;3.764;2023-12-04T02:24:26;3.30;99.90
13446;DHT22;6795;51.232;3.764;2023-12-04T02:26:59;3.30;99.90
13446;DHT22;6795;51.232;3.764;2023-12-04T02:29:37;3.40;99.90
13446;DHT22;6795;51.232;3.764;2023-12-04T02:32:08;3.40;99.90
13446;DHT22;6795;51.232;3.764;2023-12-04T02:34:40;3.40;99.90
13446;DHT22;6795;51.232;3.764;2023-12-04T02:37:11;3.40;99.90
13446;DHT22;6795;51.232;3.764;2023-12-04T02:39:42;3.40;99.90
13446;DHT22;6795;51.232;3.764;2023-12-04T02:42:12;3.30;99.90
13446;DHT22;6795;51.232;3.764;2023-12-04T02:44:41;3.30;99.90
13446;DHT22;6795;51.232;3.764;2023-12-04T02:47:09;3.30;99.90
13446;DHT22;6795;51.232;3.764;2023-12-04T02:49:38;3.30;99.90
13446;DHT22;6795;51.232;3.764;2023-12-04T02:52:06;3.30;99.90
13446;DHT22;6795;51.232;3.764;2023-12-04T02:54:35;3.30;99.90
13446;DHT22;6795;51.232;3.764;2023-12-04T02:57:05;3.30;99.90
13446;DHT22;6795;51.232;3.764;2023-12-04T02:59:33;3.30;99.90
13446;DHT22;6795;51.232;3.764;2023-12-04T03:02:01;3.20;99.90
13446;DHT22;6795;51.232;3.764;2023-12-04T03:04:30;3.30;99.90
13446;DHT22;6795;51.232;3.764;2023-12-04T03:06:59;3.30;99.90
13446;DHT22;6795;51.232;3.764;2023-12-04T03:09:27;3.30;99.90
13446;DHT22;6795;51.232;3.764;2023-12-04T03:12:16;3.20;99.90
13446;DHT22;6795;51.232;3.764;2023-12-04T03:14:45;3.30;99.90
13446;DHT22;6795;51.232;3.764;2023-12-04T03:17:13;3.30;99.90
13446;DHT22;6795;51.232;3.764;2023-12-04T03:19:42;3.30;99.90
13446;DHT22;6795;51.232;3.764;2023-12-04T03:22:12;3.30;99.90
13446;DHT22;6795;51.232;3.764;2023-12-04T03:24:40;3.30;99.90
13446;DHT22;6795;51.232;3.764;2023-12-04T03:27:09;3.40;99.90
13446;DHT22;6795;51.232;3.764;2023-12-04T03:29:39;3.40;99.90
13446;DHT22;6795;51.232;3.764;2023-12-04T03:32:07;3.30;99.90
13446;DHT22;6795;51.232;3.764;2023-12-04T03:34:35;3.30;99.90
13446;DHT22;6795;51.232;3.764;2023-12-04T03:37:03;3.30;99.90
13446;DHT22;6795;51.232;3.764;2023-12-04T03:39:32;3.30;99.90
13446;DHT22;6795;51.232;3.764;2023-12-04T03:42:00;3.30;99.90
13446;DHT22;6795;51.232;3.764;2023-12-04T03:44:29;3.30;99.90
13446;DHT22;6795;51.232;3.764;2023-12-04T03:46:58;3.20;99.90
13446;DHT22;6795;51.232;3.764;2023-12-04T03:49:27;3.30;99.90
13446;DHT22;6795;51.232;3.764;2023-12-04T03:51:56;3.30;99.90
13446;DHT22;6795;51.232;3.764;2023-12-04T03:54:24;3.40;99.90
13446;DHT22;6795;51.232;3.764;2023-12-04T03:56:52;3.30;99.90
13446;DHT22;6795;51.232;3.764;2023-12-04T03:59:21;3.30;99.90
13446;DHT22;6795;51.232;3.764;2023-12-04T04:01:49;3.30;99.90
13446;DHT22;6795;51.232;3.764;2023-12-04T04:04:19;3.30;99.90
13446;DHT22;6795;51.232;3.764;2023-12-04T04:06:47;3.40;99.90
13446;DHT22;6795;51.232;3.764;2023-12-04T04:09:16;3.40;99.90
13446;DHT22;6795;51.232;3.764;2023-12-04T04:11:47;3.40;99.90
13446;DHT22;6795;51.232;3.764;2023-12-04T04:14:16;3.60;99.90
13446;DHT22;6795;51.232;3.764;2023-12-04T04:16:44;3.60;99.90
13446;DHT22;6795;51.232;3.764;2023-12-04T04:19:13;3.60;99.90
13446;DHT22;6795;51.232;3.764;2023-12-04T04:21:42;3.60;99.90
13446;DHT22;6795;51.232;3.764;2023-12-04T04:24:11;3.60;99.90
13446;DHT22;6795;51.232;3.764;2023-12-04T04:26:39;3.50;99.90
13446;DHT22;6795;51.232;3.764;2023-12-04T04:29:08;3.60;99.90
13446;DHT22;6795;51.232;3.764;2023-12-04T04:31:37;3.60;99.90
13446;DHT22;6795;51.232;3.764;2023-12-04T04:34:05;3.70;99.90
13446;DHT22;6795;51.232;3.764;2023-12-04T04:36:33;3.70;99.90
13446;DHT22;6795;51.232;3.764;2023-12-04T04:39:04;3.70;99.90
13446;DHT22;6795;51.232;3.764;2023-12-04T04:41:33;3.70;99.90
13446;DHT22;6795;51.232;3.764;2023-12-04T04:44:02;3.80;99.90
13446;DHT22;6795;51.232;3.764;2023-12-04T04:46:30;3.80;99.90
13446;DHT22;6795;51.232;3.764;2023-12-04T04:48:59;3.80;99.90
13446;DHT22;6795;51.232;3.764;2023-12-04T04:51:27;3.80;99.90
13446;DHT22;6795;51.232;3.764;2023-12-04T04:53:56;3.80;99.90
13446;DHT22;6795;51.232;3.764;2023-12-04T04:56:26;3.80;99.90
13446;DHT22;6795;51.232;3.764;2023-12-04T04:58:54;3.80;99.90
13446;DHT22;6795;51.232;3.764;2023-12-04T05:01:23;3.80;99.90
13446;DHT22;6795;51.232;3.764;2023-12-04T05:03:51;3.80;99.90
13446;DHT22;6795;51.232;3.764;2023-12-04T05:06:20;3.80;99.90
13446;DHT22;6795;51.232;3.764;2023-12-04T05:08:49;3.90;99.90
13446;DHT22;6795;51.232;3.764;2023-12-04T05:11:19;3.80;99.90
13446;DHT22;6795;51.232;3.764;2023-12-04T05:13:49;3.80;99.90
13446;DHT22;6795;51.232;3.764;2023-12-04T05:16:17;3.90;99.90
13446;DHT22;6795;51.232;3.764;2023-12-04T05:18:45;3.90;99.90
13446;DHT22;6795;51.232;3.764;2023-12-04T05:21:14;3.90;99.90
13446;DHT22;6795;51.232;3.764;2023-12-04T05:23:43;3.90;99.90
13446;DHT22;6795;51.232;3.764;2023-12-04T05:26:11;3.90;99.90
13446;DHT22;6795;51.232;3.764;2023-12-04T05:28:39;4.00;99.90
13446;DHT22;6795;51.232;3.764;2023-12-04T05:31:10;4.10;99.90
13446;DHT22;6795;51.232;3.764;2023-12-04T05:33:38;4.00;99.90
13446;DHT22;6795;51.232;3.764;2023-12-04T05:36:11;4.00;99.90
13446;DHT22;6795;51.232;3.764;2023-12-04T05:38:40;3.90;99.90
13446;DHT22;6795;51.232;3.764;2023-12-04T05:41:08;3.90;99.90
13446;DHT22;6795;51.232;3.764;2023-12-04T05:43:36;3.80;99.90
13446;DHT22;6795;51.232;3.764;2023-12-04T05:46:05;3.80;99.90
13446;DHT22;6795;51.232;3.764;2023-12-04T05:48:35;3.80;99.90
13446;DHT22;6795;51.232;3.764;2023-12-04T05:51:04;3.80;99.90
13446;DHT22;6795;51.232;3.764;2023-12-04T05:53:32;3.90;99.90
13446;DHT22;6795;51.232;3.764;2023-12-04T05:56:00;3.80;99.90
13446;DHT22;6795;51.232;3.764;2023-12-04T05:58:29;3.80;99.90
13446;DHT22;6795;51.232;3.764;2023-12-04T06:00:57;3.80;99.90
13446;DHT22;6795;51.232;3.764;2023-12-04T06:03:25;3.80;99.90
13446;DHT22;6795;51.232;3.764;2023-12-04T06:05:55;3.80;99.90
13446;DHT22;6795;51.232;3.764;2023-12-04T06:08:27;3.80;99.90
13446;DHT22;6795;51.232;3.764;2023-12-04T06:10:55;3.80;99.90
13446;DHT22;6795;51.232;3.764;2023-12-04T06:13:25;3.90;99.90
13446;DHT22;6795;51.232;3.764;2023-12-04T06:15:53;3.90;99.90
13446;DHT22;6795;51.232;3.764;2023-12-04T06:18:21;3.90;99.90
13446;DHT22;6795;51.232;3.764;2023-12-04T06:20:55;4.00;99.90
13446;DHT22;6795;51.232;3.764;2023-12-04T06:23:24;4.00;99.90
13446;DHT22;6795;51.232;3.764;2023-12-04T06:25:53;4.10;99.90
13446;DHT22;6795;51.232;3.764;2023-12-04T06:28:22;4.00;99.90
13446;DHT22;6795;51.232;3.764;2023-12-04T06:30:50;4.00;99.90
13446;DHT22;6795;51.232;3.764;2023-12-04T06:33:19;4.00;99.90
13446;DHT22;6795;51.232;3.764;2023-12-04T06:35:48;3.90;99.90
13446;DHT22;6795;51.232;3.764;2023-12-04T06:38:19;3.90;99.90
13446;DHT22;6795;51.232;3.764;2023-12-04T06:40:52;3.90;99.90
13446;DHT22;6795;51.232;3.764;2023-12-04T06:43:21;3.90;99.90
13446;DHT22;6795;51.232;3.764;2023-12-04T06:45:50;4.00;99.90
13446;DHT22;6795;51.232;3.764;2023-12-04T06:48:19;4.00;99.90
13446;DHT22;6795;51.232;3.764;2023-12-04T06:50:47;4.00;99.90
13446;DHT22;6795;51.232;3.764;2023-12-04T06:53:15;4.00;99.90
13446;DHT22;6795;51.232;3.764;2023-12-04T06:55:45;4.00;99.90
13446;DHT22;6795;51.232;3.764;2023-12-04T06:58:13;4.00;99.90
13446;DHT22;6795;51.232;3.764;2023-12-04T07:00:42;4.00;99.90
13446;DHT22;6795;51.232;3.764;2023-12-04T07:03:10;3.90;99.90
13446;DHT22;6795;51.232;3.764;2023-12-04T07:05:39;4.00;99.90
13446;DHT22;6795;51.232;3.764;2023-12-04T07:08:07;4.00;99.90
13446;DHT22;6795;51.232;3.764;2023-12-04T07:10:37;4.10;99.90
13446;DHT22;6795;51.232;3.764;2023-12-04T07:13:07;4.10;99.90
13446;DHT22;6795;51.232;3.764;2023-12-04T07:15:35;4.10;99.90
13446;DHT22;6795;51.232;3.764;2023-12-04T07:18:04;4.20;99.90
13446;DHT22;6795;51.232;3.764;2023-12-04T07:20:32;4.20;99.90
13446;DHT22;6795;51.232;3.764;2023-12-04T07:23:01;4.20;99.90
13446;DHT22;6795;51.232;3.764;2023-12-04T07:25:30;4.20;99.90
13446;DHT22;6795;51.232;3.764;2023-12-04T07:27:58;4.20;99.90
13446;DHT22;6795;51.232;3.764;2023-12-04T07:30:29;4.20;99.90
13446;DHT22;6795;51.232;3.764;2023-12-04T07:32:57;4.30;99.90
13446;DHT22;6795;51.232;3.764;2023-12-04T07:35:26;4.30;99.90
13446;DHT22;6795;51.232;3.764;2023-12-04T07:37:54;4.20;99.90
13446;DHT22;6795;51.232;3.764;2023-12-04T07:40:22;4.20;99.90
13446;DHT22;6795;51.232;3.764;2023-12-04T07:42:51;4.20;99.90
13446;DHT22;6795;51.232;3.764;2023-12-04T07:45:19;4.20;99.90
13446;DHT22;6795;51.232;3.764;2023-12-04T07:47:49;4.20;99.90
13446;DHT22;6795;51.232;3.764;2023-12-04T07:50:18;4.10;99.90
13446;DHT22;6795;51.232;3.764;2023-12-04T07:52:46;4.20;99.90
13446;DHT22;6795;51.232;3.764;2023-12-04T07:55:16;4.10;99.90
13446;DHT22;6795;51.232;3.764;2023-12-04T07:57:44;4.20;99.90
13446;DHT22;6795;51.232;3.764;2023-12-04T08:00:13;4.20;99.90
13446;DHT22;6795;51.232;3.764;2023-12-04T08:02:44;4.20;99.90
13446;DHT22;6795;51.232;3.764;2023-12-04T08:05:14;4.20;99.90
13446;DHT22;6795;51.232;3.764;2023-12-04T08:07:43;4.20;99.90
13446;DHT22;6795;51.232;3.764;2023-12-04T08:10:11;4.20;99.90
13446;DHT22;6795;51.232;3.764;2023-12-04T08:12:40;4.10;99.90
13446;DHT22;6795;51.232;3.764;2023-12-04T08:15:09;4.10;99.90
13446;DHT22;6795;51.232;3.764;2023-12-04T08:17:37;4.00;99.90
13446;DHT22;6795;51.232;3.764;2023-12-04T08:20:07;4.00;99.90
13446;DHT22;6795;51.232;3.764;2023-12-04T08:22:51;4.00;99.90
13446;DHT22;6795;51.232;3.764;2023-12-04T08:25:22;4.00;99.90
13446;DHT22;6795;51.232;3.764;2023-12-04T08:27:50;4.00;99.90
13446;DHT22;6795;51.232;3.764;2023-12-04T08:30:19;4.00;99.90
13446;DHT22;6795;51.232;3.764;2023-12-04T08:32:47;4.10;99.90
13446;DHT22;6795;51.232;3.764;2023-12-04T08:35:16;4.10;99.90
13446;DHT22;6795;51.232;3.764;2023-12-04T08:37:44;4.10;99.90
13446;DHT22;6795;51.232;3.764;2023-12-04T08:40:15;4.10;99.90
13446;DHT22;6795;51.232;3.764;2023-12-04T08:42:44;4.10;99.90
13446;DHT22;6795;51.232;3.764;2023-12-04T08:45:12;4.20;99.90
13446;DHT22;6795;51.232;3.764;2023-12-04T08:47:44;4.20;99.90
13446;DHT22;6795;51.232;3.764;2023-12-04T08:50:13;4.30;99.90
13446;DHT22;6795;51.232;3.764;2023-12-04T08:52:41;4.30;99.90
13446;DHT22;6795;51.232;3.764;2023-12-04T08:55:10;4.30;99.90
13446;DHT22;6795;51.232;3.764;2023-12-04T08:57:40;4.40;99.90
13446;DHT22;6795;51.232;3.764;2023-12-04T09:00:09;4.40;99.90
13446;DHT22;6795;51.232;3.764;2023-12-04T09:02:38;4.40;99.90
13446;DHT22;6795;51.232;3.764;2023-12-04T09:05:15;4.50;99.90
13446;DHT22;6795;51.232;3.764;2023-12-04T09:07:44;4.50;99.90
13446;DHT22;6795;51.232;3.764;2023-12-04T09:10:16;4.50;99.90
13446;DHT22;6795;51.232;3.764;2023-12-04T09:13:06;4.50;99.90
13446;DHT22;6795;51.232;3.764;2023-12-04T09:15:34;4.50;99.90
13446;DHT22;6795;51.232;3.764;2023-12-04T09:18:03;4.50;99.90
13446;DHT22;6795;51.232;3.764;2023-12-04T09:20:31;4.50;99.90
13446;DHT22;6795;51.232;3.764;2023-12-04T09:22:59;4.50;99.90
13446;DHT22;6795;51.232;3.764;2023-12-04T09:25:36;4.50;99.90
13446;DHT22;6795;51.232;3.764;2023-12-04T09:28:06;4.50;99.90
13446;DHT22;6795;51.232;3.764;2023-12-04T09:30:36;4.60;99.90
13446;DHT22;6795;51.232;3.764;2023-12-04T09:33:05;4.60;99.90
13446;DHT22;6795;51.232;3.764;2023-12-04T09:35:38;4.60;99.90
13446;DHT22;6795;51.232;3.764;2023-12-04T09:38:06;4.60;99.90
13446;DHT22;6795;51.232;3.764;2023-12-04T09:40:34;4.60;99.90
13446;DHT22;6795;51.232;3.764;2023-12-04T09:43:07;4.50;99.90
13446;DHT22;6795;51.232;3.764;2023-12-04T09:45:35;4.50;99.90
13446;DHT22;6795;51.232;3.764;2023-12-04T09:48:05;4.40;99.90
13446;DHT22;6795;51.232;3.764;2023-12-04T09:50:37;4.30;99.90
13446;DHT22;6795;51.232;3.764;2023-12-04T09:53:08;4.30;99.90
13446;DHT22;6795;51.232;3.764;2023-12-04T09:55:38;4.20;99.90
13446;DHT22;6795;51.232;3.764;2023-12-04T09:58:09;4.10;99.90
13446;DHT22;6795;51.232;3.764;2023-12-04T10:00:40;4.10;99.90
13446;DHT22;6795;51.232;3.764;2023-12-04T10:03:10;4.10;99.90
13446;DHT22;6795;51.232;3.764;2023-12-04T10:05:44;4.10;99.90
13446;DHT22;6795;51.232;3.764;2023-12-04T10:08:13;4.00;99.90
13446;DHT22;6795;51.232;3.764;2023-12-04T10:10:41;4.10;99.90
13446;DHT22;6795;51.232;3.764;2023-12-04T10:13:12;4.10;99.90
13446;DHT22;6795;51.232;3.764;2023-12-04T10:16:00;4.10;99.90
13446;DHT22;6795;51.232;3.764;2023-12-04T10:18:31;4.10;99.90
13446;DHT22;6795;51.232;3.764;2023-12-04T10:21:00;4.10;99.90
13446;DHT22;6795;51.232;3.764;2023-12-04T10:23:37;4.10;99.90
13446;DHT22;6795;51.232;3.764;2023-12-04T10:26:06;4.10;99.90
13446;DHT22;6795;51.232;3.764;2023-12-04T10:28:36;4.00;99.90
13446;DHT22;6795;51.232;3.764;2023-12-04T10:31:06;4.00;99.90
13446;DHT22;6795;51.232;3.764;2023-12-04T10:33:34;4.00;99.90
13446;DHT22;6795;51.232;3.764;2023-12-04T10:36:04;3.90;99.90
13446;DHT22;6795;51.232;3.764;2023-12-04T10:38:39;3.90;99.90
13446;DHT22;6795;51.232;3.764;2023-12-04T10:41:12;3.90;99.90
13446;DHT22;6795;51.232;3.764;2023-12-04T10:43:48;3.90;99.90
13446;DHT22;6795;51.232;3.764;2023-12-04T10:46:30;4.00;99.90
13446;DHT22;6795;51.232;3.764;2023-12-04T10:49:00;4.00;99.90
13446;DHT22;6795;51.232;3.764;2023-12-04T10:51:32;4.00;99.90
13446;DHT22;6795;51.232;3.764;2023-12-04T10:54:01;3.90;99.90
13446;DHT22;6795;51.232;3.764;2023-12-04T10:56:36;3.90;99.90
13446;DHT22;6795;51.232;3.764;2023-12-04T10:59:11;3.90;99.90
13446;DHT22;6795;51.232;3.764;2023-12-04T11:01:42;3.90;99.90
13446;DHT22;6795;51.232;3.764;2023-12-04T11:04:17;3.90;99.90
13446;DHT22;6795;51.232;3.764;2023-12-04T11:06:51;3.90;99.90
13446;DHT22;6795;51.232;3.764;2023-12-04T11:09:21;3.90;99.90
13446;DHT22;6795;51.232;3.764;2023-12-04T11:11:56;3.90;99.90
13446;DHT22;6795;51.232;3.764;2023-12-04T11:14:33;3.90;99.90
13446;DHT22;6795;51.232;3.764;2023-12-04T11:17:06;3.90;99.90
13446;DHT22;6795;51.232;3.764;2023-12-04T11:19:47;3.90;99.90
13446;DHT22;6795;51.232;3.764;2023-12-04T11:22:19;3.90;99.90
13446;DHT22;6795;51.232;3.764;2023-12-04T11:24:48;3.90;99.90
13446;DHT22;6795;51.232;3.764;2023-12-04T11:27:18;4.00;99.90
13446;DHT22;6795;51.232;3.764;2023-12-04T11:29:49;4.00;99.90
13446;DHT22;6795;51.232;3.764;2023-12-04T11:32:18;4.00;99.90
13446;DHT22;6795;51.232;3.764;2023-12-04T11:34:48;4.10;99.90
13446;DHT22;6795;51.232;3.764;2023-12-04T11:37:17;4.10;99.90
13446;DHT22;6795;51.232;3.764;2023-12-04T11:39:46;4.10;99.90
13446;DHT22;6795;51.232;3.764;2023-12-04T11:42:19;4.10;99.90
13446;DHT22;6795;51.232;3.764;2023-12-04T11:44:51;4.00;99.90
13446;DHT22;6795;51.232;3.764;2023-12-04T11:47:23;4.10;99.90
13446;DHT22;6795;51.232;3.764;2023-12-04T11:49:52;4.10;99.90
13446;DHT22;6795;51.232;3.764;2023-12-04T11:52:32;4.10;99.90
13446;DHT22;6795;51.232;3.764;2023-12-04T11:55:03;4.10;99.90
13446;DHT22;6795;51.232;3.764;2023-12-04T11:57:35;4.10;99.90
13446;DHT22;6795;51.232;3.764;2023-12-04T12:00:15;4.10;99.90
13446;DHT22;6795;51.232;3.764;2023-12-04T12:02:48;4.10;99.90
13446;DHT22;6795;51.232;3.764;2023-12-04T12:05:37;4.10;99.90
13446;DHT22;6795;51.232;3.764;2023-12-04T12:08:08;4.20;99.90
13446;DHT22;6795;51.232;3.764;2023-12-04T12:10:37;4.20;99.90
13446;DHT22;6795;51.232;3.764;2023-12-04T12:13:06;4.10;99.90
13446;DHT22;6795;51.232;3.764;2023-12-04T12:15:35;4.20;99.90
13446;DHT22;6795;51.232;3.764;2023-12-04T12:18:06;4.20;99.90
13446;DHT22;6795;51.232;3.764;2023-12-04T12:20:36;4.20;99.90
13446;DHT22;6795;51.232;3.764;2023-12-04T12:23:05;4.20;99.90
13446;DHT22;6795;51.232;3.764;2023-12-04T12:25:34;4.10;99.90
13446;DHT22;6795;51.232;3.764;2023-12-04T12:28:03;4.10;99.90
13446;DHT22;6795;51.232;3.764;2023-12-04T12:30:32;4.20;99.90
13446;DHT22;6795;51.232;3.764;2023-12-04T12:33:03;4.20;99.90
13446;DHT22;6795;51.232;3.764;2023-12-04T12:35:31;4.20;99.90
13446;DHT22;6795;51.232;3.764;2023-12-04T12:38:00;4.20;99.90
13446;DHT22;6795;51.232;3.764;2023-12-04T12:40:29;4.20;99.90
13446;DHT22;6795;51.232;3.764;2023-12-04T12:43:07;4.20;99.90
13446;DHT22;6795;51.232;3.764;2023-12-04T12:45:39;4.20;99.90
13446;DHT22;6795;51.232;3.764;2023-12-04T12:48:12;4.20;99.90
13446;DHT22;6795;51.232;3.764;2023-12-04T12:50:44;4.20;99.90
13446;DHT22;6795;51.232;3.764;2023-12-04T12:53:12;4.20;99.90
13446;DHT22;6795;51.232;3.764;2023-12-04T12:55:41;4.20;99.90
13446;DHT22;6795;51.232;3.764;2023-12-04T12:58:10;4.20;99.90
13446;DHT22;6795;51.232;3.764;2023-12-04T13:00:40;4.20;99.90
13446;DHT22;6795;51.232;3.764;2023-12-04T13:03:15;4.20;99.90
13446;DHT22;6795;51.232;3.764;2023-12-04T13:05:44;4.20;99.90
13446;DHT22;6795;51.232;3.764;2023-12-04T13:08:13;4.30;99.90
13446;DHT22;6795;51.232;3.764;2023-12-04T13:10:42;4.30;99.90
13446;DHT22;6795;51.232;3.764;2023-12-04T13:13:10;4.20;99.90
13446;DHT22;6795;51.232;3.764;2023-12-04T13:15:39;4.30;99.90
13446;DHT22;6795;51.232;3.764;2023-12-04T13:18:09;4.30;99.90
13446;DHT22;6795;51.232;3.764;2023-12-04T13:20:39;4.30;99.90
13446;DHT22;6795;51.232;3.764;2023-12-04T13:23:07;4.30;99.90
13446;DHT22;6795;51.232;3.764;2023-12-04T13:25:36;4.40;99.90
13446;DHT22;6795;51.232;3.764;2023-12-04T13:28:04;4.40;99.90
13446;DHT22;6795;51.232;3.764;2023-12-04T13:30:34;4.40;99.90
13446;DHT22;6795;51.232;3.764;2023-12-04T13:33:31;4.40;99.90
13446;DHT22;6795;51.232;3.764;2023-12-04T13:36:01;4.50;99.90
13446;DHT22;6795;51.232;3.764;2023-12-04T13:38:32;4.50;99.90
13446;DHT22;6795;51.232;3.764;2023-12-04T13:41:04;4.50;99.90
13446;DHT22;6795;51.232;3.764;2023-12-04T13:43:56;4.50;99.90
13446;DHT22;6795;51.232;3.764;2023-12-04T13:46:26;4.50;99.90
13446;DHT22;6795;51.232;3.764;2023-12-04T13:48:57;4.50;99.90
13446;DHT22;6795;51.232;3.764;2023-12-04T13:51:27;4.40;99.90
13446;DHT22;6795;51.232;3.764;2023-12-04T13:53:55;4.40;99.90
13446;DHT22;6795;51.232;3.764;2023-12-04T13:56:36;4.40;99.90
13446;DHT22;6795;51.232;3.764;2023-12-04T13:59:19;4.40;99.90
13446;DHT22;6795;51.232;3.764;2023-12-04T14:01:49;4.40;99.90
13446;DHT22;6795;51.232;3.764;2023-12-04T14:04:20;4.40;99.90
13446;DHT22;6795;51.232;3.764;2023-12-04T14:06:52;4.30;99.90
13446;DHT22;6795;51.232;3.764;2023-12-04T14:09:22;4.30;99.90
13446;DHT22;6795;51.232;3.764;2023-12-04T14:11:50;4.30;99.90
13446;DHT22;6795;51.232;3.764;2023-12-04T14:14:19;4.20;99.90
13446;DHT22;6795;51.232;3.764;2023-12-04T14:16:48;4.20;99.90
13446;DHT22;6795;51.232;3.764;2023-12-04T14:19:16;4.20;99.90
13446;DHT22;6795;51.232;3.764;2023-12-04T14:21:49;4.10;99.90
13446;DHT22;6795;51.232;3.764;2023-12-04T14:24:18;4.10;99.90
13446;DHT22;6795;51.232;3.764;2023-12-04T14:26:48;4.00;99.90
13446;DHT22;6795;51.232;3.764;2023-12-04T14:29:17;4.00;99.90
13446;DHT22;6795;51.232;3.764;2023-12-04T14:31:46;4.00;99.90
13446;DHT22;6795;51.232;3.764;2023-12-04T14:34:15;4.00;99.90
13446;DHT22;6795;51.232;3.764;2023-12-04T14:36:43;3.90;99.90
13446;DHT22;6795;51.232;3.764;2023-12-04T14:39:12;3.90;99.90
13446;DHT22;6795;51.232;3.764;2023-12-04T14:41:42;3.90;99.90
13446;DHT22;6795;51.232;3.764;2023-12-04T14:44:10;3.90;99.90
13446;DHT22;6795;51.232;3.764;2023-12-04T14:46:39;3.80;99.90
13446;DHT22;6795;51.232;3.764;2023-12-04T14:49:08;3.80;99.90
13446;DHT22;6795;51.232;3.764;2023-12-04T14:51:37;3.90;99.90
13446;DHT22;6795;51.232;3.764;2023-12-04T14:54:07;3.80;99.90
13446;DHT22;6795;51.232;3.764;2023-12-04T14:56:45;3.80;99.90
13446;DHT22;6795;51.232;3.764;2023-12-04T14:59:31;3.80;99.90
13446;DHT22;6795;51.232;3.764;2023-12-04T15:02:23;3.80;99.90
13446;DHT22;6795;51.232;3.764;2023-12-04T15:05:26;3.80;99.90
13446;DHT22;6795;51.232;3.764;2023-12-04T15:08:14;3.80;99.90
13446;DHT22;6795;51.232;3.764;2023-12-04T15:10:56;3.80;99.90
13446;DHT22;6795;51.232;3.764;2023-12-04T15:13:51;3.80;99.90
13446;DHT22;6795;51.232;3.764;2023-12-04T15:16:23;3.90;99.90
13446;DHT22;6795;51.232;3.764;2023-12-04T15:19:09;3.90;99.90
13446;DHT22;6795;51.232;3.764;2023-12-04T15:22:03;3.90;99.90
13446;DHT22;6795;51.232;3.764;2023-12-04T15:24:33;3.90;99.90
13446;DHT22;6795;51.232;3.764;2023-12-04T15:27:00;3.90;99.90
13446;DHT22;6795;51.232;3.764;2023-12-04T15:29:32;3.90;99.90
13446;DHT22;6795;51.232;3.764;2023-12-04T15:32:00;4.00;99.90
13446;DHT22;6795;51.232;3.764;2023-12-04T15:34:28;4.00;99.90
13446;DHT22;6795;51.232;3.764;2023-12-04T15:36:56;4.00;99.90
13446;DHT22;6795;51.232;3.764;2023-12-04T15:39:24;4.00;99.90
13446;DHT22;6795;51.232;3.764;2023-12-04T15:41:53;4.00;99.90
13446;DHT22;6795;51.232;3.764;2023-12-04T15:44:20;4.00;99.90
13446;DHT22;6795;51.232;3.764;2023-12-04T15:46:50;4.00;99.90
13446;DHT22;6795;51.232;3.764;2023-12-04T15:49:17;4.00;99.90
13446;DHT22;6795;51.232;3.764;2023-12-04T15:51:46;4.00;99.90
13446;DHT22;6795;51.232;3.764;2023-12-04T15:54:13;4.10;99.90
13446;DHT22;6795;51.232;3.764;2023-12-04T15:56:42;4.10;99.90
13446;DHT22;6795;51.232;3.764;2023-12-04T15:59:09;4.10;99.90
13446;DHT22;6795;51.232;3.764;2023-12-04T16:01:37;4.10;99.90
13446;DHT22;6795;51.232;3.764;2023-12-04T16:04:06;4.10;99.90
13446;DHT22;6795;51.232;3.764;2023-12-04T16:06:35;4.10;99.90
13446;DHT22;6795;51.232;3.764;2023-12-04T16:09:04;4.10;99.90
13446;DHT22;6795;51.232;3.764;2023-12-04T16:11:33;4.20;99.90
13446;DHT22;6795;51.232;3.764;2023-12-04T16:14:01;4.20;99.90
13446;DHT22;6795;51.232;3.764;2023-12-04T16:16:29;4.20;99.90
13446;DHT22;6795;51.232;3.764;2023-12-04T16:18:58;4.20;99.90
13446;DHT22;6795;51.232;3.764;2023-12-04T16:21:28;4.20;99.90